createdAt,value
2019-06-20T00:00:13.610Z,19.60
2019-06-20T00:02:44.451Z,26.15
2019-06-20T00:05:15.660Z,17.82
2019-06-20T00:07:46.743Z,18.65
2019-06-20T00:10:17.787Z,20.88
2019-06-20T00:12:59.842Z,15.13
2019-06-20T00:15:21.299Z,20.50
2019-06-20T00:17:52.238Z,17.70
2019-06-20T00:20:23.247Z,18.50
2019-06-20T00:22:54.272Z,14.45
2019-06-20T00:25:25.323Z,21.10
2019-06-20T00:27:56.265Z,18.90
2019-06-20T00:30:27.268Z,16.77
2019-06-20T00:32:58.203Z,17.17
2019-06-20T00:35:29.178Z,14.18
2019-06-20T00:38:02.870Z,12.33
2019-06-20T00:40:33.691Z,17.17
2019-06-20T00:43:17.001Z,9.50
2019-06-20T00:45:37.042Z,10.87
2019-06-20T00:48:07.947Z,15.90
2019-06-20T00:50:38.969Z,13.70
2019-06-20T00:53:09.948Z,14.68
2019-06-20T00:55:40.919Z,15.48
2019-06-20T00:58:12.165Z,8.90
2019-06-20T01:00:43.093Z,15.30
2019-06-20T01:03:13.928Z,16.00
2019-06-20T01:05:46.250Z,12.18
2019-06-20T01:08:16.956Z,13.10
2019-06-20T01:10:47.930Z,9.65
2019-06-20T01:13:32.533Z,8.60
2019-06-20T01:15:50.902Z,12.30
2019-06-20T01:18:21.795Z,15.68
2019-06-20T01:20:52.810Z,7.75
2019-06-20T01:23:23.705Z,11.95
2019-06-20T01:25:54.667Z,9.80
2019-06-20T01:28:25.507Z,9.28
2019-06-20T01:30:56.993Z,9.35
2019-06-20T01:33:27.893Z,8.73
2019-06-20T01:35:59.102Z,9.38
2019-06-20T01:38:30.056Z,7.72
2019-06-20T01:41:00.861Z,11.53
2019-06-20T01:43:31.855Z,11.80
2019-06-20T01:46:02.872Z,13.88
2019-06-20T01:48:33.653Z,12.95
2019-06-20T01:51:05.587Z,8.65
2019-06-20T01:53:36.381Z,7.85
2019-06-20T01:56:07.355Z,7.47
2019-06-20T01:58:39.285Z,8.80
2019-06-20T02:01:10.215Z,9.43
2019-06-20T02:03:41.071Z,10.65
2019-06-20T02:06:12.406Z,9.78
2019-06-20T02:08:43.308Z,12.35
2019-06-20T02:11:14.285Z,17.10
2019-06-20T02:13:47.922Z,15.40
2019-06-20T02:16:18.923Z,9.05
2019-06-20T02:18:49.637Z,9.25
2019-06-20T02:21:20.561Z,11.30
2019-06-20T02:23:52.560Z,19.23
2019-06-20T02:26:24.726Z,10.23
2019-06-20T02:28:55.709Z,17.40
2019-06-20T02:31:26.848Z,9.08
2019-06-20T02:33:58.742Z,9.35
2019-06-20T02:36:29.499Z,4.75
2019-06-20T02:39:00.295Z,8.18
2019-06-20T02:41:32.712Z,6.92
2019-06-20T02:44:03.487Z,7.15
2019-06-20T02:46:34.521Z,6.42
2019-06-20T02:49:06.819Z,5.47
2019-06-20T02:51:38.002Z,8.20
2019-06-20T02:54:09.064Z,6.95
2019-06-20T02:56:40.297Z,5.97
2019-06-20T02:59:11.264Z,6.60
2019-06-20T03:01:42.323Z,5.80
2019-06-20T03:04:14.470Z,8.40
2019-06-20T03:06:45.547Z,6.92
2019-06-20T03:09:16.451Z,12.63
2019-06-20T03:11:47.973Z,5.97
2019-06-20T03:14:18.911Z,6.90
2019-06-20T03:16:50.148Z,6.95
2019-06-20T03:19:21.725Z,7.37
2019-06-20T03:21:52.474Z,7.28
2019-06-20T03:24:25.273Z,10.65
2019-06-20T03:26:56.420Z,8.00
2019-06-20T03:29:27.393Z,5.17
2019-06-20T03:31:58.314Z,5.30
2019-06-20T03:34:30.874Z,5.75
2019-06-20T03:37:02.099Z,9.05
2019-06-20T03:39:32.904Z,6.10
2019-06-20T03:42:04.045Z,4.40
2019-06-20T03:44:34.867Z,5.15
2019-06-20T03:47:05.905Z,6.10
2019-06-20T03:49:36.978Z,6.20
2019-06-20T03:52:08.971Z,9.60
2019-06-20T03:54:40.179Z,6.55
2019-06-20T03:57:12.164Z,9.90
2019-06-20T03:59:43.063Z,6.92
2019-06-20T04:02:13.940Z,8.20
2019-06-20T04:04:45.047Z,3.60
2019-06-20T04:07:15.726Z,5.17
2019-06-20T04:09:46.712Z,7.65
2019-06-20T04:12:18.737Z,5.40
2019-06-20T04:14:49.594Z,4.35
2019-06-20T04:17:20.548Z,7.08
2019-06-20T04:19:51.730Z,4.62
2019-06-20T04:22:23.408Z,6.53
2019-06-20T04:24:54.322Z,9.95
2019-06-20T04:27:26.495Z,8.38
2019-06-20T04:29:57.341Z,9.30
2019-06-20T04:32:28.518Z,5.65
2019-06-20T04:34:59.563Z,6.92
2019-06-20T04:37:30.437Z,4.37
2019-06-20T04:40:01.404Z,5.58
2019-06-20T04:42:35.540Z,7.87
2019-06-20T04:45:09.024Z,5.08
2019-06-20T04:47:38.712Z,5.00
2019-06-20T04:50:08.097Z,5.80
2019-06-20T04:52:37.376Z,7.22
2019-06-20T04:55:07.312Z,6.83
2019-06-20T04:57:36.853Z,5.97
2019-06-20T05:00:06.249Z,3.22
2019-06-20T05:02:35.639Z,8.70
2019-06-20T05:05:05.009Z,7.53
2019-06-20T05:07:34.680Z,6.60
2019-06-20T05:10:04.418Z,3.55
2019-06-20T05:12:34.953Z,7.65
2019-06-20T05:15:04.451Z,5.28
2019-06-20T05:17:33.924Z,6.17
2019-06-20T05:20:03.413Z,3.67
2019-06-20T05:22:32.735Z,3.50
2019-06-20T05:25:02.335Z,5.40
2019-06-20T05:27:31.581Z,5.65
2019-06-20T05:30:01.135Z,5.62
2019-06-20T05:32:30.780Z,5.30
2019-06-20T05:35:02.973Z,3.87
2019-06-20T05:37:30.827Z,3.77
2019-06-20T05:40:00.648Z,4.22
2019-06-20T05:42:30.149Z,10.15
2019-06-20T05:44:59.833Z,5.15
2019-06-20T05:47:29.455Z,5.33
2019-06-20T05:49:59.479Z,5.90
2019-06-20T05:52:29.028Z,4.80
2019-06-20T05:54:58.732Z,3.95
2019-06-20T05:57:28.100Z,6.17
2019-06-20T06:00:00.941Z,6.65
2019-06-20T06:02:30.582Z,3.35
2019-06-20T06:05:00.315Z,5.40
2019-06-20T06:07:31.104Z,6.22
2019-06-20T06:10:03.982Z,6.42
2019-06-20T06:12:49.004Z,5.33
2019-06-20T06:15:03.107Z,5.83
2019-06-20T06:17:32.810Z,3.90
2019-06-20T06:20:02.389Z,2.80
2019-06-20T06:22:32.086Z,2.72
2019-06-20T06:25:01.633Z,6.35
2019-06-20T06:27:31.081Z,1.90
2019-06-20T06:30:01.134Z,2.90
2019-06-20T06:32:39.470Z,3.85
2019-06-20T06:35:01.945Z,3.60
2019-06-20T06:37:31.605Z,3.92
2019-06-20T06:40:01.091Z,5.17
2019-06-20T06:42:30.308Z,2.70
2019-06-20T06:45:00.211Z,4.15
2019-06-20T06:47:30.760Z,4.55
2019-06-20T06:50:00.223Z,2.40
2019-06-20T06:52:30.320Z,2.02
2019-06-20T06:54:59.724Z,6.12
2019-06-20T06:57:30.207Z,3.37
2019-06-20T07:00:00.409Z,5.53
2019-06-20T07:02:29.787Z,3.25
2019-06-20T07:04:59.404Z,6.15
2019-06-20T07:07:28.988Z,3.17
2019-06-20T07:09:58.392Z,3.80
2019-06-20T07:12:28.746Z,3.00
2019-06-20T07:14:58.191Z,3.33
2019-06-20T07:17:27.560Z,3.35
2019-06-20T07:19:57.186Z,2.35
2019-06-20T07:22:26.771Z,3.50
2019-06-20T07:24:56.424Z,2.00
2019-06-20T07:27:25.875Z,2.40
2019-06-20T07:29:56.049Z,2.92
2019-06-20T07:32:25.944Z,4.55
2019-06-20T07:34:57.134Z,3.77
2019-06-20T07:37:27.074Z,2.77
2019-06-20T07:39:56.501Z,3.45
2019-06-20T07:42:26.915Z,3.42
2019-06-20T07:44:56.816Z,5.90
2019-06-20T07:47:26.265Z,5.50
2019-06-20T07:49:55.721Z,4.20
2019-06-20T07:52:25.314Z,6.10
2019-06-20T07:54:54.779Z,2.27
2019-06-20T07:57:25.257Z,3.95
2019-06-20T07:59:54.962Z,3.20
2019-06-20T08:02:24.301Z,3.70
2019-06-20T08:04:53.633Z,2.90
2019-06-20T08:07:23.664Z,2.80
2019-06-20T08:09:52.965Z,3.47
2019-06-20T08:12:22.550Z,3.90
2019-06-20T08:14:52.263Z,4.40
2019-06-20T08:17:34.824Z,5.17
2019-06-20T08:19:53.514Z,3.87
2019-06-20T08:22:23.439Z,2.67
2019-06-20T08:24:53.691Z,4.70
2019-06-20T08:27:23.685Z,2.77
2019-06-20T08:29:53.825Z,2.98
2019-06-20T08:32:23.249Z,4.22
2019-06-20T08:34:52.859Z,2.27
2019-06-20T08:37:22.324Z,7.53
2019-06-20T08:39:51.850Z,4.00
2019-06-20T08:42:21.482Z,3.42
2019-06-20T08:44:51.152Z,3.17
2019-06-20T08:47:20.644Z,5.55
2019-06-20T08:49:49.949Z,5.22
2019-06-20T08:52:19.525Z,5.03
2019-06-20T08:54:48.971Z,4.33
2019-06-20T08:57:18.445Z,2.60
2019-06-20T08:59:48.116Z,3.67
2019-06-20T09:02:18.827Z,3.62
2019-06-20T09:04:48.573Z,11.28
2019-06-20T09:07:18.308Z,3.22
2019-06-20T09:09:47.762Z,3.27
2019-06-20T09:12:18.712Z,2.00
2019-06-20T09:14:48.534Z,5.37
2019-06-20T09:17:18.141Z,3.72
2019-06-20T09:19:47.864Z,2.35
2019-06-20T09:22:17.564Z,4.08
2019-06-20T09:24:46.935Z,3.50
2019-06-20T09:27:16.602Z,2.55
2019-06-20T09:29:46.601Z,2.72
2019-06-20T09:32:16.041Z,3.15
2019-06-20T09:34:46.297Z,6.12
2019-06-20T09:37:16.130Z,5.10
2019-06-20T09:39:45.724Z,8.43
2019-06-20T09:42:15.190Z,3.58
2019-06-20T09:44:44.802Z,2.90
2019-06-20T09:47:14.309Z,2.90
2019-06-20T09:49:43.911Z,5.53
2019-06-20T09:52:13.705Z,13.32
2019-06-20T09:54:43.064Z,11.48
2019-06-20T09:57:12.645Z,6.67
2019-06-20T09:59:56.145Z,5.15
2019-06-20T10:02:13.277Z,8.58
2019-06-20T10:04:43.726Z,6.00
2019-06-20T10:07:13.539Z,3.83
2019-06-20T10:09:43.024Z,8.68
2019-06-20T10:12:12.543Z,2.85
2019-06-20T10:14:42.375Z,4.10
2019-06-20T10:17:11.886Z,7.15
2019-06-20T10:19:41.354Z,2.85
2019-06-20T10:22:10.779Z,5.85
2019-06-20T10:24:40.240Z,5.25
2019-06-20T10:27:09.947Z,3.65
2019-06-20T10:29:39.539Z,4.33
2019-06-20T10:32:09.069Z,2.77
2019-06-20T10:34:39.528Z,3.65
2019-06-20T10:37:09.374Z,2.65
2019-06-20T10:39:39.004Z,5.92
2019-06-20T10:42:08.469Z,6.42
2019-06-20T10:44:41.069Z,15.35
2019-06-20T10:47:13.123Z,5.87
2019-06-20T10:49:44.710Z,5.72
2019-06-20T10:52:14.430Z,5.10
2019-06-20T10:54:44.853Z,2.42
2019-06-20T10:57:14.598Z,8.35
2019-06-20T10:59:44.261Z,9.80
2019-06-20T11:02:13.959Z,13.15
2019-06-20T11:04:44.107Z,5.78
2019-06-20T11:07:13.645Z,7.40
2019-06-20T11:09:43.503Z,11.22
2019-06-20T11:12:13.153Z,10.18
2019-06-20T11:14:44.122Z,8.58
2019-06-20T11:17:13.691Z,8.43
2019-06-20T11:19:43.770Z,11.55
2019-06-20T11:22:13.417Z,9.63
2019-06-20T11:24:43.068Z,9.03
2019-06-20T11:27:13.306Z,14.18
2019-06-20T11:29:44.063Z,9.15
2019-06-20T11:32:13.690Z,14.53
2019-06-20T11:34:44.746Z,11.20
2019-06-20T11:37:14.399Z,20.27
2019-06-20T11:39:47.453Z,19.60
2019-06-20T11:44:47.455Z,12.95
2019-06-20T11:47:16.929Z,10.93
2019-06-20T11:49:46.998Z,17.30
2019-06-20T11:52:16.605Z,13.58
2019-06-20T11:54:46.204Z,24.70
2019-06-20T11:57:16.033Z,40.50
2019-06-20T11:59:45.490Z,19.40
2019-06-20T12:02:15.007Z,14.80
2019-06-20T12:04:45.278Z,16.95
2019-06-20T12:07:14.630Z,12.13
2019-06-20T12:09:44.236Z,8.48
2019-06-20T12:12:14.296Z,11.22
2019-06-20T12:14:44.285Z,9.58
2019-06-20T12:17:13.763Z,8.40
2019-06-20T12:19:44.680Z,13.05
2019-06-20T12:22:14.161Z,11.45
2019-06-20T12:24:44.516Z,12.78
2019-06-20T12:27:14.269Z,9.58
2019-06-20T12:29:44.379Z,10.55
2019-06-20T12:32:14.019Z,9.45
2019-06-20T12:34:44.549Z,12.03
2019-06-20T12:37:14.020Z,10.75
2019-06-20T12:39:44.564Z,14.43
2019-06-20T12:42:14.245Z,10.55
2019-06-20T12:44:45.931Z,10.28
2019-06-20T12:47:15.548Z,12.85
2019-06-20T12:49:45.862Z,13.38
2019-06-20T12:52:15.375Z,19.55
2019-06-20T12:54:46.833Z,12.63
2019-06-20T12:57:16.565Z,18.73
2019-06-20T12:59:46.342Z,12.43
2019-06-20T13:02:17.536Z,13.50
2019-06-20T13:04:47.246Z,17.48
2019-06-20T13:07:16.924Z,19.23
2019-06-20T13:09:46.457Z,18.07
2019-06-20T13:12:16.069Z,21.52
2019-06-20T13:14:49.637Z,15.90
2019-06-20T13:17:19.634Z,16.65
2019-06-20T13:19:49.057Z,13.00
2019-06-20T13:22:18.514Z,12.07
2019-06-20T13:24:49.420Z,15.20
2019-06-20T13:27:19.097Z,12.53
2019-06-20T13:29:49.469Z,13.13
2019-06-20T13:32:19.265Z,14.18
2019-06-20T13:34:48.948Z,12.70
2019-06-20T13:37:18.871Z,10.25
2019-06-20T13:39:50.177Z,14.50
2019-06-20T13:42:19.849Z,16.17
2019-06-20T13:44:49.305Z,13.05
2019-06-20T13:47:19.216Z,16.00
2019-06-20T13:49:50.026Z,14.40
2019-06-20T13:52:19.517Z,15.93
2019-06-20T13:54:49.911Z,12.50
2019-06-20T13:57:19.496Z,14.28
2019-06-20T13:59:52.448Z,14.68
2019-06-20T14:02:19.919Z,14.80
2019-06-20T14:04:50.648Z,16.55
2019-06-20T14:07:20.235Z,12.33
2019-06-20T14:09:51.148Z,12.60
2019-06-20T14:12:20.729Z,13.90
2019-06-20T14:14:50.339Z,15.38
2019-06-20T14:17:19.930Z,9.33
2019-06-20T14:19:49.589Z,16.77
2019-06-20T14:22:19.075Z,13.80
2019-06-20T14:24:48.640Z,12.95
2019-06-20T14:27:18.081Z,18.37
2019-06-20T14:29:49.028Z,13.03
2019-06-20T14:32:22.223Z,18.20
2019-06-20T14:34:50.348Z,16.00
2019-06-20T14:37:19.722Z,16.65
2019-06-20T14:39:50.955Z,14.78
2019-06-20T14:42:20.304Z,15.25
2019-06-20T14:44:49.855Z,18.90
2019-06-20T14:47:19.642Z,12.58
2019-06-20T14:49:50.870Z,11.57
2019-06-20T14:52:20.243Z,13.30
2019-06-20T14:54:51.745Z,15.28
2019-06-20T14:57:21.289Z,12.88
2019-06-20T14:59:52.562Z,16.37
2019-06-20T15:02:37.231Z,16.10
2019-06-20T15:04:52.575Z,14.15
2019-06-20T15:07:22.225Z,14.60
2019-06-20T15:09:53.246Z,12.23
2019-06-20T15:12:22.645Z,16.75
2019-06-20T15:14:53.362Z,16.77
2019-06-20T15:17:25.868Z,17.05
2019-06-20T15:19:56.172Z,15.60
2019-06-20T15:22:26.844Z,18.30
2019-06-20T15:24:57.202Z,16.15
2019-06-20T15:27:26.859Z,14.93
2019-06-20T15:29:56.587Z,18.37
2019-06-20T15:32:29.495Z,12.90
2019-06-20T15:35:01.701Z,22.25
2019-06-20T15:37:29.997Z,20.40
2019-06-20T15:39:59.501Z,18.90
2019-06-20T15:42:28.902Z,14.40
2019-06-20T15:44:58.760Z,14.87
2019-06-20T15:47:28.155Z,17.77
2019-06-20T15:49:57.715Z,16.65
2019-06-20T15:52:27.300Z,19.30
2019-06-20T15:54:56.749Z,18.55
2019-06-20T15:57:26.145Z,18.05
2019-06-20T15:59:55.922Z,16.00
2019-06-20T16:02:25.308Z,18.75
2019-06-20T16:04:54.749Z,14.63
2019-06-20T16:07:24.382Z,15.15
2019-06-20T16:09:53.712Z,20.20
2019-06-20T16:12:23.058Z,20.15
2019-06-20T16:14:58.208Z,18.75
2019-06-20T16:17:27.833Z,13.83
2019-06-20T16:19:57.492Z,14.85
2019-06-20T16:22:27.111Z,18.27
2019-06-20T16:24:56.527Z,18.52
2019-06-20T16:27:26.689Z,15.13
2019-06-20T16:29:56.163Z,15.30
2019-06-20T16:32:25.617Z,15.10
2019-06-20T16:34:55.293Z,19.02
2019-06-20T16:37:24.774Z,17.10
2019-06-20T16:39:54.128Z,16.95
2019-06-20T16:42:23.782Z,15.18
2019-06-20T16:44:53.056Z,18.30
2019-06-20T16:47:22.685Z,16.17
2019-06-20T16:49:52.234Z,14.65
2019-06-20T16:52:21.716Z,20.23
2019-06-20T16:54:51.272Z,16.57
2019-06-20T16:57:20.856Z,16.70
2019-06-20T16:59:50.387Z,15.48
2019-06-20T17:02:19.823Z,17.07
2019-06-20T17:04:49.413Z,14.85
2019-06-20T17:07:18.646Z,14.75
2019-06-20T17:09:48.239Z,18.17
2019-06-20T17:12:18.012Z,16.30
2019-06-20T17:14:47.500Z,15.03
2019-06-20T17:17:17.153Z,16.70
2019-06-20T17:19:46.755Z,14.38
2019-06-20T17:22:17.484Z,17.52
2019-06-20T17:24:48.651Z,14.87
2019-06-20T17:27:18.548Z,13.30
2019-06-20T17:29:48.049Z,12.05
2019-06-20T17:32:17.556Z,12.73
2019-06-20T17:34:47.004Z,13.65
2019-06-20T17:37:16.611Z,11.55
2019-06-20T17:39:46.514Z,15.23
2019-06-20T17:42:16.173Z,11.97
2019-06-20T17:44:51.620Z,11.68
2019-06-20T17:47:22.058Z,13.83
2019-06-20T17:49:51.851Z,14.15
2019-06-20T17:52:21.511Z,14.33
2019-06-20T17:54:50.975Z,13.43
2019-06-20T17:57:20.569Z,12.15
2019-06-20T17:59:53.269Z,12.80
2019-06-20T18:02:22.833Z,9.48
2019-06-20T18:04:53.375Z,10.35
2019-06-20T18:07:24.340Z,11.75
2019-06-20T18:09:53.957Z,11.78
2019-06-20T18:12:23.521Z,9.00
2019-06-20T18:14:52.878Z,10.45
2019-06-20T18:17:22.381Z,12.45
2019-06-20T18:19:52.401Z,9.28
2019-06-20T18:22:22.213Z,10.10
2019-06-20T18:24:51.709Z,10.70
2019-06-20T18:27:21.628Z,10.23
2019-06-20T18:29:50.955Z,16.30
2019-06-20T18:32:20.380Z,14.53
2019-06-20T18:35:01.560Z,9.95
2019-06-20T18:37:31.451Z,11.30
2019-06-20T18:39:54.867Z,10.25
2019-06-20T18:42:24.494Z,9.43
2019-06-20T18:44:54.053Z,14.73
2019-06-20T18:47:23.747Z,15.18
2019-06-20T18:49:56.255Z,12.80
2019-06-20T18:52:25.612Z,10.77
2019-06-20T18:54:55.589Z,9.68
2019-06-20T18:57:25.223Z,10.58
2019-06-20T18:59:54.609Z,15.90
2019-06-20T19:02:24.231Z,10.15
2019-06-20T19:04:53.701Z,11.40
2019-06-20T19:07:23.262Z,13.38
2019-06-20T19:09:52.911Z,11.78
2019-06-20T19:12:22.550Z,13.83
2019-06-20T19:14:51.986Z,10.32
2019-06-20T19:17:21.754Z,15.23
2019-06-20T19:19:51.473Z,10.63
2019-06-20T19:22:21.296Z,9.15
2019-06-20T19:24:50.654Z,11.43
2019-06-20T19:27:20.306Z,10.13
2019-06-20T19:29:50.243Z,12.30
2019-06-20T19:32:19.792Z,11.95
2019-06-20T19:35:01.436Z,13.38
2019-06-20T19:37:20.434Z,12.28
2019-06-20T19:39:50.981Z,14.07
2019-06-20T19:42:20.734Z,12.45
2019-06-20T19:44:51.468Z,15.55
2019-06-20T19:47:20.814Z,11.48
2019-06-20T19:49:50.355Z,16.00
2019-06-20T19:52:19.997Z,17.55
2019-06-20T19:54:52.164Z,19.62
2019-06-20T19:57:21.487Z,13.88
2019-06-20T19:59:51.146Z,15.90
2019-06-20T20:02:20.627Z,14.83
2019-06-20T20:04:50.373Z,18.23
2019-06-20T20:07:19.885Z,15.40
2019-06-20T20:09:49.562Z,17.85
2019-06-20T20:12:19.052Z,11.97
2019-06-20T20:14:48.726Z,13.53
2019-06-20T20:17:18.124Z,13.13
2019-06-20T20:19:47.642Z,16.23
2019-06-20T20:22:17.221Z,11.30
2019-06-20T20:24:46.749Z,15.32
2019-06-20T20:27:16.717Z,12.00
2019-06-20T20:29:48.709Z,14.85
2019-06-20T20:32:18.262Z,13.03
2019-06-20T20:34:48.820Z,12.53
2019-06-20T20:37:19.271Z,13.68
2019-06-20T20:39:48.691Z,12.13
2019-06-20T20:42:18.228Z,11.93
2019-06-20T20:44:47.862Z,12.93
2019-06-20T20:47:17.233Z,15.98
2019-06-20T20:49:46.800Z,14.40
2019-06-20T20:52:16.507Z,13.35
2019-06-20T20:54:45.851Z,16.67
2019-06-20T20:57:15.211Z,11.80
2019-06-20T20:59:44.946Z,13.25
2019-06-20T21:02:14.312Z,13.60
2019-06-20T21:04:43.775Z,16.97
2019-06-20T21:07:13.365Z,11.93
2019-06-20T21:09:42.598Z,12.05
2019-06-20T21:12:12.519Z,11.18
2019-06-20T21:14:42.343Z,15.88
2019-06-20T21:17:11.782Z,14.35
2019-06-20T21:19:41.122Z,14.05
2019-06-20T21:22:10.657Z,25.02
2019-06-20T21:24:40.195Z,12.78
2019-06-20T21:27:09.948Z,10.72
2019-06-20T21:29:40.569Z,14.85
2019-06-20T21:32:10.073Z,13.13
2019-06-20T21:34:39.700Z,13.93
2019-06-20T21:37:09.226Z,13.18
2019-06-20T21:39:38.873Z,11.50
2019-06-20T21:42:08.575Z,12.20
2019-06-20T21:44:38.181Z,11.30
2019-06-20T21:47:07.668Z,11.10
2019-06-20T21:49:37.281Z,15.28
2019-06-20T21:52:06.785Z,11.63
2019-06-20T21:54:37.687Z,12.90
2019-06-20T21:57:07.282Z,10.15
2019-06-20T21:59:36.970Z,12.65
2019-06-20T22:02:06.212Z,12.37
2019-06-20T22:04:35.531Z,11.08
2019-06-20T22:07:05.323Z,17.87
2019-06-20T22:09:35.017Z,13.30
2019-06-20T22:12:04.429Z,9.60
2019-06-20T22:14:34.097Z,13.80
2019-06-20T22:17:03.495Z,13.18
2019-06-20T22:19:32.887Z,12.95
2019-06-20T22:22:02.511Z,16.25
2019-06-20T22:24:31.946Z,13.43
2019-06-20T22:27:01.291Z,12.00
2019-06-20T22:29:30.796Z,11.97
2019-06-20T22:32:00.548Z,12.43
2019-06-20T22:34:29.940Z,13.30
2019-06-20T22:36:59.621Z,14.63
2019-06-20T22:39:29.877Z,14.65
2019-06-20T22:41:59.264Z,10.78
2019-06-20T22:44:29.176Z,13.93
2019-06-20T22:46:58.475Z,14.13
2019-06-20T22:49:27.896Z,16.42
2019-06-20T22:51:57.473Z,14.80
2019-06-20T22:54:27.115Z,13.65
2019-06-20T22:56:56.400Z,18.10
2019-06-20T22:59:26.279Z,11.95
2019-06-20T23:01:55.816Z,11.30
2019-06-20T23:04:25.204Z,14.40
2019-06-20T23:06:56.688Z,13.93
2019-06-20T23:09:27.442Z,13.00
2019-06-20T23:11:56.532Z,12.90
2019-06-20T23:14:26.367Z,11.48
2019-06-20T23:16:55.820Z,15.03
2019-06-20T23:19:25.369Z,11.03
2019-06-20T23:21:54.932Z,21.37
2019-06-20T23:24:24.682Z,14.35
2019-06-20T23:26:54.242Z,11.88
2019-06-20T23:29:24.217Z,10.43
2019-06-20T23:31:53.766Z,12.13
2019-06-20T23:34:23.372Z,13.80
2019-06-20T23:36:52.950Z,12.82
2019-06-20T23:39:22.484Z,10.65
2019-06-20T23:41:51.917Z,13.28
2019-06-20T23:44:21.467Z,11.25
2019-06-20T23:46:50.875Z,12.07
2019-06-20T23:49:20.311Z,12.93
2019-06-20T23:51:49.854Z,10.45
2019-06-20T23:54:19.401Z,11.60
2019-06-20T23:56:49.255Z,13.80
2019-06-20T23:59:18.837Z,8.53
